sensor_id;sensor_type;location;lat;lon;timestamp;P1;durP1;ratioP1;P2;durP2;ratioP2
71164;SDS011;58859;55.132;-1.586;2023-10-19T00:00:57;15.80;;;3.73;;
71164;SDS011;58859;55.132;-1.586;2023-10-19T00:03:24;25.67;;;4.35;;
71164;SDS011;58859;55.132;-1.586;2023-10-19T00:05:50;18.43;;;3.90;;
71164;SDS011;58859;55.132;-1.586;2023-10-19T00:08:15;17.70;;;4.05;;
71164;SDS011;58859;55.132;-1.586;2023-10-19T00:10:52;16.98;;;3.80;;
71164;SDS011;58859;55.132;-1.586;2023-10-19T00:13:36;20.92;;;4.22;;
71164;SDS011;58859;55.132;-1.586;2023-10-19T00:16:03;17.23;;;3.40;;
71164;SDS011;58859;55.132;-1.586;2023-10-19T00:18:37;15.98;;;3.85;;
71164;SDS011;58859;55.132;-1.586;2023-10-19T00:21:07;18.80;;;4.00;;
71164;SDS011;58859;55.132;-1.586;2023-10-19T00:23:46;20.55;;;4.53;;
71164;SDS011;58859;55.132;-1.586;2023-10-19T00:26:14;19.02;;;4.05;;
71164;SDS011;58859;55.132;-1.586;2023-10-19T00:28:45;23.33;;;4.13;;
71164;SDS011;58859;55.132;-1.586;2023-10-19T00:31:13;19.58;;;5.32;;
71164;SDS011;58859;55.132;-1.586;2023-10-19T00:33:39;19.70;;;4.13;;
71164;SDS011;58859;55.132;-1.586;2023-10-19T00:36:08;21.73;;;3.42;;
71164;SDS011;58859;55.132;-1.586;2023-10-19T00:38:34;23.63;;;5.10;;
71164;SDS011;58859;55.132;-1.586;2023-10-19T00:41:22;21.55;;;4.68;;
71164;SDS011;58859;55.132;-1.586;2023-10-19T00:43:53;20.55;;;4.18;;
71164;SDS011;58859;55.132;-1.586;2023-10-19T00:46:30;26.90;;;4.35;;
71164;SDS011;58859;55.132;-1.586;2023-10-19T00:49:09;24.58;;;4.78;;
71164;SDS011;58859;55.132;-1.586;2023-10-19T00:51:38;22.25;;;4.13;;
71164;SDS011;58859;55.132;-1.586;2023-10-19T00:54:27;23.15;;;4.47;;
71164;SDS011;58859;55.132;-1.586;2023-10-19T00:57:00;23.67;;;3.97;;
71164;SDS011;58859;55.132;-1.586;2023-10-19T00:59:35;21.35;;;4.60;;
71164;SDS011;58859;55.132;-1.586;2023-10-19T01:02:08;22.80;;;4.68;;
71164;SDS011;58859;55.132;-1.586;2023-10-19T01:05:00;21.48;;;4.40;;
71164;SDS011;58859;55.132;-1.586;2023-10-19T01:07:32;20.77;;;4.70;;
71164;SDS011;58859;55.132;-1.586;2023-10-19T01:10:03;24.30;;;5.00;;
71164;SDS011;58859;55.132;-1.586;2023-10-19T01:12:30;22.95;;;4.95;;
71164;SDS011;58859;55.132;-1.586;2023-10-19T01:17:50;16.17;;;4.53;;
71164;SDS011;58859;55.132;-1.586;2023-10-19T01:20:25;18.80;;;4.05;;
71164;SDS011;58859;55.132;-1.586;2023-10-19T01:25:54;23.05;;;5.57;;
71164;SDS011;58859;55.132;-1.586;2023-10-19T01:28:30;20.42;;;4.82;;
71164;SDS011;58859;55.132;-1.586;2023-10-19T01:31:06;23.67;;;4.28;;
71164;SDS011;58859;55.132;-1.586;2023-10-19T01:33:32;14.77;;;4.57;;
71164;SDS011;58859;55.132;-1.586;2023-10-19T01:35:59;20.95;;;5.13;;
71164;SDS011;58859;55.132;-1.586;2023-10-19T01:38:39;24.60;;;5.15;;
71164;SDS011;58859;55.132;-1.586;2023-10-19T01:41:06;20.10;;;4.80;;
71164;SDS011;58859;55.132;-1.586;2023-10-19T01:43:42;17.15;;;4.90;;
71164;SDS011;58859;55.132;-1.586;2023-10-19T01:46:08;22.33;;;5.47;;
71164;SDS011;58859;55.132;-1.586;2023-10-19T01:48:38;26.65;;;5.97;;
71164;SDS011;58859;55.132;-1.586;2023-10-19T01:51:06;28.73;;;5.93;;
71164;SDS011;58859;55.132;-1.586;2023-10-19T01:53:35;33.38;;;7.28;;
71164;SDS011;58859;55.132;-1.586;2023-10-19T01:56:01;32.42;;;5.97;;
71164;SDS011;58859;55.132;-1.586;2023-10-19T01:58:30;24.60;;;5.40;;
71164;SDS011;58859;55.132;-1.586;2023-10-19T02:01:01;19.85;;;5.43;;
71164;SDS011;58859;55.132;-1.586;2023-10-19T02:03:39;31.35;;;4.97;;
71164;SDS011;58859;55.132;-1.586;2023-10-19T02:06:08;20.85;;;5.63;;
71164;SDS011;58859;55.132;-1.586;2023-10-19T02:09:17;27.33;;;6.57;;
71164;SDS011;58859;55.132;-1.586;2023-10-19T02:11:52;31.17;;;5.57;;
71164;SDS011;58859;55.132;-1.586;2023-10-19T02:14:22;22.05;;;4.82;;
71164;SDS011;58859;55.132;-1.586;2023-10-19T02:16:53;32.08;;;7.13;;
71164;SDS011;58859;55.132;-1.586;2023-10-19T02:19:22;35.15;;;5.40;;
71164;SDS011;58859;55.132;-1.586;2023-10-19T02:21:50;26.60;;;5.50;;
71164;SDS011;58859;55.132;-1.586;2023-10-19T02:24:17;20.93;;;5.90;;
71164;SDS011;58859;55.132;-1.586;2023-10-19T02:26:44;31.33;;;6.07;;
71164;SDS011;58859;55.132;-1.586;2023-10-19T02:29:11;23.90;;;6.18;;
71164;SDS011;58859;55.132;-1.586;2023-10-19T02:31:37;23.35;;;5.97;;
71164;SDS011;58859;55.132;-1.586;2023-10-19T02:34:05;21.90;;;4.63;;
71164;SDS011;58859;55.132;-1.586;2023-10-19T02:36:33;31.13;;;6.32;;
71164;SDS011;58859;55.132;-1.586;2023-10-19T02:38:59;29.67;;;6.88;;
71164;SDS011;58859;55.132;-1.586;2023-10-19T02:41:32;34.70;;;7.40;;
71164;SDS011;58859;55.132;-1.586;2023-10-19T02:44:12;22.65;;;5.10;;
71164;SDS011;58859;55.132;-1.586;2023-10-19T02:46:51;34.10;;;6.87;;
71164;SDS011;58859;55.132;-1.586;2023-10-19T02:49:23;32.13;;;7.15;;
71164;SDS011;58859;55.132;-1.586;2023-10-19T02:51:51;26.92;;;6.53;;
71164;SDS011;58859;55.132;-1.586;2023-10-19T02:54:18;31.75;;;6.82;;
71164;SDS011;58859;55.132;-1.586;2023-10-19T02:56:47;30.25;;;6.22;;
71164;SDS011;58859;55.132;-1.586;2023-10-19T02:59:18;32.03;;;6.90;;
71164;SDS011;58859;55.132;-1.586;2023-10-19T03:01:48;26.60;;;6.30;;
71164;SDS011;58859;55.132;-1.586;2023-10-19T03:04:17;27.17;;;6.03;;
71164;SDS011;58859;55.132;-1.586;2023-10-19T03:06:43;25.70;;;6.10;;
71164;SDS011;58859;55.132;-1.586;2023-10-19T03:09:09;24.57;;;4.97;;
71164;SDS011;58859;55.132;-1.586;2023-10-19T03:11:47;26.80;;;6.45;;
71164;SDS011;58859;55.132;-1.586;2023-10-19T03:14:17;28.42;;;5.90;;
71164;SDS011;58859;55.132;-1.586;2023-10-19T03:16:43;27.57;;;6.17;;
71164;SDS011;58859;55.132;-1.586;2023-10-19T03:19:08;31.57;;;6.87;;
71164;SDS011;58859;55.132;-1.586;2023-10-19T03:21:34;22.52;;;5.60;;
71164;SDS011;58859;55.132;-1.586;2023-10-19T03:24:08;22.33;;;5.80;;
71164;SDS011;58859;55.132;-1.586;2023-10-19T03:26:48;29.60;;;6.03;;
71164;SDS011;58859;55.132;-1.586;2023-10-19T03:29:15;22.02;;;6.40;;
71164;SDS011;58859;55.132;-1.586;2023-10-19T03:31:51;30.85;;;6.68;;
71164;SDS011;58859;55.132;-1.586;2023-10-19T03:34:17;16.02;;;5.15;;
71164;SDS011;58859;55.132;-1.586;2023-10-19T03:36:42;21.67;;;5.80;;
71164;SDS011;58859;55.132;-1.586;2023-10-19T03:39:08;27.00;;;5.13;;
71164;SDS011;58859;55.132;-1.586;2023-10-19T03:41:37;15.90;;;5.17;;
71164;SDS011;58859;55.132;-1.586;2023-10-19T03:44:07;20.05;;;4.40;;
71164;SDS011;58859;55.132;-1.586;2023-10-19T03:46:38;26.33;;;5.75;;
71164;SDS011;58859;55.132;-1.586;2023-10-19T03:49:17;25.92;;;5.55;;
71164;SDS011;58859;55.132;-1.586;2023-10-19T03:51:44;12.23;;;4.50;;
71164;SDS011;58859;55.132;-1.586;2023-10-19T03:54:45;24.67;;;4.93;;
71164;SDS011;58859;55.132;-1.586;2023-10-19T03:57:13;26.23;;;4.30;;
71164;SDS011;58859;55.132;-1.586;2023-10-19T03:59:55;21.17;;;5.72;;
71164;SDS011;58859;55.132;-1.586;2023-10-19T04:02:27;16.73;;;5.50;;
71164;SDS011;58859;55.132;-1.586;2023-10-19T04:05:00;16.05;;;5.15;;
71164;SDS011;58859;55.132;-1.586;2023-10-19T04:07:27;14.70;;;4.60;;
71164;SDS011;58859;55.132;-1.586;2023-10-19T04:09:56;19.30;;;4.80;;
71164;SDS011;58859;55.132;-1.586;2023-10-19T04:12:34;17.38;;;4.93;;
71164;SDS011;58859;55.132;-1.586;2023-10-19T04:15:02;19.63;;;4.75;;
71164;SDS011;58859;55.132;-1.586;2023-10-19T04:17:38;16.48;;;5.05;;
71164;SDS011;58859;55.132;-1.586;2023-10-19T04:20:04;14.93;;;4.63;;
71164;SDS011;58859;55.132;-1.586;2023-10-19T04:22:42;21.33;;;5.50;;
71164;SDS011;58859;55.132;-1.586;2023-10-19T04:25:11;26.73;;;4.80;;
71164;SDS011;58859;55.132;-1.586;2023-10-19T04:27:54;21.23;;;4.03;;
71164;SDS011;58859;55.132;-1.586;2023-10-19T04:30:21;18.30;;;4.07;;
71164;SDS011;58859;55.132;-1.586;2023-10-19T04:32:47;9.43;;;3.70;;
71164;SDS011;58859;55.132;-1.586;2023-10-19T04:35:17;14.98;;;4.60;;
71164;SDS011;58859;55.132;-1.586;2023-10-19T04:37:55;14.67;;;3.87;;
71164;SDS011;58859;55.132;-1.586;2023-10-19T04:40:22;16.65;;;3.75;;
71164;SDS011;58859;55.132;-1.586;2023-10-19T04:42:48;11.75;;;4.22;;
71164;SDS011;58859;55.132;-1.586;2023-10-19T04:45:16;19.13;;;4.00;;
71164;SDS011;58859;55.132;-1.586;2023-10-19T04:47:41;13.05;;;3.92;;
71164;SDS011;58859;55.132;-1.586;2023-10-19T04:50:07;11.03;;;4.37;;
71164;SDS011;58859;55.132;-1.586;2023-10-19T04:52:35;16.23;;;4.78;;
71164;SDS011;58859;55.132;-1.586;2023-10-19T04:55:01;23.48;;;4.18;;
71164;SDS011;58859;55.132;-1.586;2023-10-19T04:57:27;15.63;;;4.20;;
71164;SDS011;58859;55.132;-1.586;2023-10-19T04:59:52;12.35;;;3.30;;
71164;SDS011;58859;55.132;-1.586;2023-10-19T05:02:18;15.90;;;3.55;;
71164;SDS011;58859;55.132;-1.586;2023-10-19T05:04:44;19.90;;;4.30;;
71164;SDS011;58859;55.132;-1.586;2023-10-19T05:07:10;11.95;;;3.92;;
71164;SDS011;58859;55.132;-1.586;2023-10-19T05:09:42;11.10;;;3.13;;
71164;SDS011;58859;55.132;-1.586;2023-10-19T05:12:07;19.42;;;3.97;;
71164;SDS011;58859;55.132;-1.586;2023-10-19T05:14:38;13.57;;;4.20;;
71164;SDS011;58859;55.132;-1.586;2023-10-19T05:17:04;18.77;;;3.65;;
71164;SDS011;58859;55.132;-1.586;2023-10-19T05:19:33;25.17;;;4.75;;
71164;SDS011;58859;55.132;-1.586;2023-10-19T05:22:00;20.67;;;4.37;;
71164;SDS011;58859;55.132;-1.586;2023-10-19T05:24:26;13.63;;;3.65;;
71164;SDS011;58859;55.132;-1.586;2023-10-19T05:26:53;14.98;;;2.78;;
71164;SDS011;58859;55.132;-1.586;2023-10-19T05:29:21;20.45;;;4.72;;
71164;SDS011;58859;55.132;-1.586;2023-10-19T05:31:47;20.45;;;4.03;;
71164;SDS011;58859;55.132;-1.586;2023-10-19T05:34:18;16.13;;;3.70;;
71164;SDS011;58859;55.132;-1.586;2023-10-19T05:36:45;15.77;;;3.53;;
71164;SDS011;58859;55.132;-1.586;2023-10-19T05:39:13;18.15;;;3.92;;
71164;SDS011;58859;55.132;-1.586;2023-10-19T05:41:39;23.67;;;4.93;;
71164;SDS011;58859;55.132;-1.586;2023-10-19T05:44:05;23.13;;;3.70;;
71164;SDS011;58859;55.132;-1.586;2023-10-19T05:46:30;22.50;;;6.23;;
71164;SDS011;58859;55.132;-1.586;2023-10-19T05:48:56;22.63;;;5.03;;
71164;SDS011;58859;55.132;-1.586;2023-10-19T05:51:22;22.67;;;4.13;;
71164;SDS011;58859;55.132;-1.586;2023-10-19T05:53:48;24.47;;;4.20;;
71164;SDS011;58859;55.132;-1.586;2023-10-19T05:56:15;24.80;;;5.25;;
71164;SDS011;58859;55.132;-1.586;2023-10-19T05:58:42;20.48;;;4.45;;
71164;SDS011;58859;55.132;-1.586;2023-10-19T06:01:08;26.50;;;4.78;;
71164;SDS011;58859;55.132;-1.586;2023-10-19T06:03:33;23.53;;;5.23;;
71164;SDS011;58859;55.132;-1.586;2023-10-19T06:05:59;22.33;;;3.73;;
71164;SDS011;58859;55.132;-1.586;2023-10-19T06:08:24;19.13;;;4.13;;
71164;SDS011;58859;55.132;-1.586;2023-10-19T06:10:52;22.52;;;4.65;;
71164;SDS011;58859;55.132;-1.586;2023-10-19T06:13:18;22.92;;;3.97;;
71164;SDS011;58859;55.132;-1.586;2023-10-19T06:15:44;25.87;;;4.33;;
71164;SDS011;58859;55.132;-1.586;2023-10-19T06:18:10;22.33;;;3.00;;
71164;SDS011;58859;55.132;-1.586;2023-10-19T06:20:36;29.50;;;4.00;;
71164;SDS011;58859;55.132;-1.586;2023-10-19T06:23:02;29.92;;;4.28;;
71164;SDS011;58859;55.132;-1.586;2023-10-19T06:25:31;19.33;;;3.28;;
71164;SDS011;58859;55.132;-1.586;2023-10-19T06:28:00;21.97;;;3.00;;
71164;SDS011;58859;55.132;-1.586;2023-10-19T06:30:26;28.00;;;2.70;;
71164;SDS011;58859;55.132;-1.586;2023-10-19T06:32:56;25.85;;;4.28;;
71164;SDS011;58859;55.132;-1.586;2023-10-19T06:35:26;21.75;;;3.63;;
71164;SDS011;58859;55.132;-1.586;2023-10-19T06:37:53;19.17;;;3.42;;
71164;SDS011;58859;55.132;-1.586;2023-10-19T06:40:22;15.97;;;3.57;;
71164;SDS011;58859;55.132;-1.586;2023-10-19T06:42:48;25.15;;;3.45;;
71164;SDS011;58859;55.132;-1.586;2023-10-19T06:45:14;16.67;;;2.65;;
71164;SDS011;58859;55.132;-1.586;2023-10-19T06:47:41;24.07;;;3.50;;
71164;SDS011;58859;55.132;-1.586;2023-10-19T06:50:08;12.00;;;2.78;;
71164;SDS011;58859;55.132;-1.586;2023-10-19T06:52:38;14.20;;;2.60;;
71164;SDS011;58859;55.132;-1.586;2023-10-19T06:55:04;12.00;;;2.38;;
71164;SDS011;58859;55.132;-1.586;2023-10-19T06:57:38;18.75;;;3.42;;
71164;SDS011;58859;55.132;-1.586;2023-10-19T07:00:10;10.83;;;1.97;;
71164;SDS011;58859;55.132;-1.586;2023-10-19T07:02:40;18.67;;;2.83;;
71164;SDS011;58859;55.132;-1.586;2023-10-19T07:05:12;22.13;;;3.67;;
71164;SDS011;58859;55.132;-1.586;2023-10-19T07:07:42;21.35;;;3.92;;
71164;SDS011;58859;55.132;-1.586;2023-10-19T07:10:08;19.75;;;4.60;;
71164;SDS011;58859;55.132;-1.586;2023-10-19T07:12:37;17.00;;;3.97;;
71164;SDS011;58859;55.132;-1.586;2023-10-19T07:15:06;20.48;;;3.90;;
71164;SDS011;58859;55.132;-1.586;2023-10-19T07:17:39;24.20;;;4.22;;
71164;SDS011;58859;55.132;-1.586;2023-10-19T07:20:08;24.65;;;4.70;;
71164;SDS011;58859;55.132;-1.586;2023-10-19T07:22:47;27.73;;;5.35;;
71164;SDS011;58859;55.132;-1.586;2023-10-19T07:25:13;24.40;;;4.83;;
71164;SDS011;58859;55.132;-1.586;2023-10-19T07:27:39;31.88;;;4.75;;
71164;SDS011;58859;55.132;-1.586;2023-10-19T07:30:07;24.48;;;4.60;;
71164;SDS011;58859;55.132;-1.586;2023-10-19T07:32:34;26.70;;;4.95;;
71164;SDS011;58859;55.132;-1.586;2023-10-19T07:35:00;21.00;;;5.10;;
71164;SDS011;58859;55.132;-1.586;2023-10-19T07:37:26;21.15;;;5.15;;
71164;SDS011;58859;55.132;-1.586;2023-10-19T07:39:52;22.13;;;3.83;;
71164;SDS011;58859;55.132;-1.586;2023-10-19T07:42:22;15.20;;;3.22;;
71164;SDS011;58859;55.132;-1.586;2023-10-19T07:44:47;19.80;;;4.28;;
71164;SDS011;58859;55.132;-1.586;2023-10-19T07:47:14;11.98;;;3.35;;
71164;SDS011;58859;55.132;-1.586;2023-10-19T07:49:39;8.63;;;2.50;;
71164;SDS011;58859;55.132;-1.586;2023-10-19T07:52:05;7.45;;;2.80;;
71164;SDS011;58859;55.132;-1.586;2023-10-19T07:54:36;6.28;;;2.75;;
71164;SDS011;58859;55.132;-1.586;2023-10-19T07:57:02;5.10;;;1.80;;
71164;SDS011;58859;55.132;-1.586;2023-10-19T07:59:32;2.92;;;2.10;;
71164;SDS011;58859;55.132;-1.586;2023-10-19T08:01:57;3.17;;;1.63;;
71164;SDS011;58859;55.132;-1.586;2023-10-19T08:04:23;4.80;;;1.80;;
71164;SDS011;58859;55.132;-1.586;2023-10-19T08:06:50;2.95;;;1.55;;
71164;SDS011;58859;55.132;-1.586;2023-10-19T08:09:16;3.33;;;1.65;;
71164;SDS011;58859;55.132;-1.586;2023-10-19T08:11:47;3.40;;;1.45;;
71164;SDS011;58859;55.132;-1.586;2023-10-19T08:14:13;2.72;;;1.38;;
71164;SDS011;58859;55.132;-1.586;2023-10-19T08:16:39;1.77;;;1.53;;
71164;SDS011;58859;55.132;-1.586;2023-10-19T08:19:06;2.80;;;1.30;;
71164;SDS011;58859;55.132;-1.586;2023-10-19T08:21:32;3.03;;;1.48;;
71164;SDS011;58859;55.132;-1.586;2023-10-19T08:23:59;4.30;;;1.70;;
71164;SDS011;58859;55.132;-1.586;2023-10-19T08:26:29;2.28;;;2.03;;
71164;SDS011;58859;55.132;-1.586;2023-10-19T08:28:55;1.58;;;1.15;;
71164;SDS011;58859;55.132;-1.586;2023-10-19T08:31:20;2.27;;;1.70;;
71164;SDS011;58859;55.132;-1.586;2023-10-19T08:33:46;2.72;;;1.85;;
71164;SDS011;58859;55.132;-1.586;2023-10-19T08:36:16;2.50;;;1.83;;
71164;SDS011;58859;55.132;-1.586;2023-10-19T08:38:44;3.85;;;1.80;;
71164;SDS011;58859;55.132;-1.586;2023-10-19T08:41:10;3.95;;;2.15;;
71164;SDS011;58859;55.132;-1.586;2023-10-19T08:43:36;3.20;;;2.10;;
71164;SDS011;58859;55.132;-1.586;2023-10-19T08:46:04;2.72;;;2.40;;
71164;SDS011;58859;55.132;-1.586;2023-10-19T08:48:33;3.03;;;2.15;;
71164;SDS011;58859;55.132;-1.586;2023-10-19T08:51:01;3.75;;;2.50;;
71164;SDS011;58859;55.132;-1.586;2023-10-19T08:53:34;4.80;;;2.47;;
71164;SDS011;58859;55.132;-1.586;2023-10-19T08:56:04;3.95;;;2.33;;
71164;SDS011;58859;55.132;-1.586;2023-10-19T08:58:31;3.78;;;2.88;;
71164;SDS011;58859;55.132;-1.586;2023-10-19T09:00:57;3.90;;;2.80;;
71164;SDS011;58859;55.132;-1.586;2023-10-19T09:03:25;3.63;;;2.53;;
71164;SDS011;58859;55.132;-1.586;2023-10-19T09:05:51;2.78;;;2.58;;
71164;SDS011;58859;55.132;-1.586;2023-10-19T09:08:16;5.28;;;2.92;;
71164;SDS011;58859;55.132;-1.586;2023-10-19T09:10:45;2.63;;;2.40;;
71164;SDS011;58859;55.132;-1.586;2023-10-19T09:13:11;3.22;;;2.80;;
71164;SDS011;58859;55.132;-1.586;2023-10-19T09:15:38;3.05;;;2.45;;
71164;SDS011;58859;55.132;-1.586;2023-10-19T09:20:41;3.70;;;3.13;;
71164;SDS011;58859;55.132;-1.586;2023-10-19T09:23:17;3.97;;;2.88;;
71164;SDS011;58859;55.132;-1.586;2023-10-19T09:25:47;3.65;;;2.78;;
71164;SDS011;58859;55.132;-1.586;2023-10-19T09:28:14;4.97;;;2.50;;
71164;SDS011;58859;55.132;-1.586;2023-10-19T09:30:39;6.33;;;2.27;;
71164;SDS011;58859;55.132;-1.586;2023-10-19T09:33:05;7.90;;;3.30;;
71164;SDS011;58859;55.132;-1.586;2023-10-19T09:35:32;11.35;;;3.22;;
71164;SDS011;58859;55.132;-1.586;2023-10-19T09:37:59;12.90;;;2.60;;
71164;SDS011;58859;55.132;-1.586;2023-10-19T09:40:26;7.22;;;2.28;;
71164;SDS011;58859;55.132;-1.586;2023-10-19T09:42:55;11.55;;;3.78;;
71164;SDS011;58859;55.132;-1.586;2023-10-19T09:45:22;15.93;;;3.70;;
71164;SDS011;58859;55.132;-1.586;2023-10-19T09:47:53;12.70;;;2.90;;
71164;SDS011;58859;55.132;-1.586;2023-10-19T09:50:19;9.93;;;2.60;;
71164;SDS011;58859;55.132;-1.586;2023-10-19T09:52:45;9.20;;;3.28;;
71164;SDS011;58859;55.132;-1.586;2023-10-19T10:00:32;11.02;;;3.45;;
71164;SDS011;58859;55.132;-1.586;2023-10-19T10:02:59;13.15;;;3.55;;
71164;SDS011;58859;55.132;-1.586;2023-10-19T10:10:46;24.13;;;4.45;;
71164;SDS011;58859;55.132;-1.586;2023-10-19T10:15:55;13.82;;;3.88;;
71164;SDS011;58859;55.132;-1.586;2023-10-19T10:18:32;18.00;;;3.60;;
71164;SDS011;58859;55.132;-1.586;2023-10-19T10:26:18;11.73;;;3.22;;
71164;SDS011;58859;55.132;-1.586;2023-10-19T10:28:48;13.38;;;3.38;;
71164;SDS011;58859;55.132;-1.586;2023-10-19T10:31:34;9.45;;;3.15;;
71164;SDS011;58859;55.132;-1.586;2023-10-19T10:34:05;17.48;;;3.92;;
71164;SDS011;58859;55.132;-1.586;2023-10-19T10:36:57;17.83;;;3.58;;
71164;SDS011;58859;55.132;-1.586;2023-10-19T10:39:35;23.13;;;3.80;;
71164;SDS011;58859;55.132;-1.586;2023-10-19T10:42:05;13.05;;;3.17;;
71164;SDS011;58859;55.132;-1.586;2023-10-19T10:44:35;18.55;;;3.17;;
71164;SDS011;58859;55.132;-1.586;2023-10-19T10:47:20;12.68;;;3.28;;
71164;SDS011;58859;55.132;-1.586;2023-10-19T10:52:15;15.70;;;3.97;;
71164;SDS011;58859;55.132;-1.586;2023-10-19T10:54:49;15.38;;;3.70;;
71164;SDS011;58859;55.132;-1.586;2023-10-19T10:57:14;19.87;;;3.77;;
71164;SDS011;58859;55.132;-1.586;2023-10-19T10:59:41;16.50;;;4.00;;
71164;SDS011;58859;55.132;-1.586;2023-10-19T11:02:18;21.33;;;3.83;;
71164;SDS011;58859;55.132;-1.586;2023-10-19T11:04:46;18.17;;;4.45;;
71164;SDS011;58859;55.132;-1.586;2023-10-19T11:07:18;21.48;;;4.45;;
71164;SDS011;58859;55.132;-1.586;2023-10-19T11:09:48;20.43;;;4.03;;
71164;SDS011;58859;55.132;-1.586;2023-10-19T11:12:14;16.10;;;3.58;;
71164;SDS011;58859;55.132;-1.586;2023-10-19T11:14:55;16.77;;;3.95;;
71164;SDS011;58859;55.132;-1.586;2023-10-19T11:17:22;15.63;;;4.30;;
71164;SDS011;58859;55.132;-1.586;2023-10-19T11:19:58;19.75;;;4.10;;
71164;SDS011;58859;55.132;-1.586;2023-10-19T11:22:24;18.87;;;4.37;;
71164;SDS011;58859;55.132;-1.586;2023-10-19T11:24:51;17.67;;;4.22;;
71164;SDS011;58859;55.132;-1.586;2023-10-19T11:27:25;16.27;;;4.85;;
71164;SDS011;58859;55.132;-1.586;2023-10-19T11:29:57;18.05;;;3.97;;
71164;SDS011;58859;55.132;-1.586;2023-10-19T11:32:23;14.82;;;4.60;;
71164;SDS011;58859;55.132;-1.586;2023-10-19T11:34:55;24.23;;;4.60;;
71164;SDS011;58859;55.132;-1.586;2023-10-19T11:37:21;18.80;;;4.57;;
71164;SDS011;58859;55.132;-1.586;2023-10-19T11:39:46;20.90;;;4.53;;
71164;SDS011;58859;55.132;-1.586;2023-10-19T11:42:13;14.25;;;4.45;;
71164;SDS011;58859;55.132;-1.586;2023-10-19T11:44:38;13.80;;;4.03;;
71164;SDS011;58859;55.132;-1.586;2023-10-19T11:47:04;14.30;;;4.10;;
71164;SDS011;58859;55.132;-1.586;2023-10-19T11:49:30;14.65;;;3.88;;
71164;SDS011;58859;55.132;-1.586;2023-10-19T11:51:55;16.80;;;5.22;;
71164;SDS011;58859;55.132;-1.586;2023-10-19T11:54:21;13.20;;;4.13;;
71164;SDS011;58859;55.132;-1.586;2023-10-19T11:56:46;16.97;;;4.00;;
71164;SDS011;58859;55.132;-1.586;2023-10-19T11:59:13;22.13;;;3.65;;
71164;SDS011;58859;55.132;-1.586;2023-10-19T12:01:40;14.57;;;3.42;;
71164;SDS011;58859;55.132;-1.586;2023-10-19T12:04:05;10.40;;;2.95;;
71164;SDS011;58859;55.132;-1.586;2023-10-19T12:06:31;10.57;;;2.70;;
71164;SDS011;58859;55.132;-1.586;2023-10-19T12:08:56;8.77;;;2.90;;
71164;SDS011;58859;55.132;-1.586;2023-10-19T12:11:24;14.68;;;3.60;;
71164;SDS011;58859;55.132;-1.586;2023-10-19T12:13:49;8.73;;;3.20;;
71164;SDS011;58859;55.132;-1.586;2023-10-19T12:16:15;14.13;;;3.00;;
71164;SDS011;58859;55.132;-1.586;2023-10-19T12:18:44;8.23;;;3.50;;
71164;SDS011;58859;55.132;-1.586;2023-10-19T12:21:11;12.95;;;3.00;;
71164;SDS011;58859;55.132;-1.586;2023-10-19T12:23:40;11.05;;;3.17;;
71164;SDS011;58859;55.132;-1.586;2023-10-19T12:26:07;13.10;;;3.25;;
71164;SDS011;58859;55.132;-1.586;2023-10-19T12:28:40;24.15;;;3.60;;
71164;SDS011;58859;55.132;-1.586;2023-10-19T12:31:06;8.65;;;2.50;;
71164;SDS011;58859;55.132;-1.586;2023-10-19T12:33:34;11.63;;;2.65;;
71164;SDS011;58859;55.132;-1.586;2023-10-19T12:36:01;9.70;;;2.75;;
71164;SDS011;58859;55.132;-1.586;2023-10-19T12:38:26;14.50;;;2.60;;
71164;SDS011;58859;55.132;-1.586;2023-10-19T12:40:52;12.40;;;3.10;;
71164;SDS011;58859;55.132;-1.586;2023-10-19T12:43:18;13.32;;;3.30;;
71164;SDS011;58859;55.132;-1.586;2023-10-19T12:45:50;14.83;;;3.07;;
71164;SDS011;58859;55.132;-1.586;2023-10-19T12:48:18;18.92;;;4.10;;
71164;SDS011;58859;55.132;-1.586;2023-10-19T12:50:45;12.18;;;3.13;;
71164;SDS011;58859;55.132;-1.586;2023-10-19T12:53:11;11.95;;;2.67;;
71164;SDS011;58859;55.132;-1.586;2023-10-19T12:55:37;15.57;;;3.17;;
71164;SDS011;58859;55.132;-1.586;2023-10-19T12:58:03;13.43;;;2.75;;
71164;SDS011;58859;55.132;-1.586;2023-10-19T13:00:34;11.00;;;3.17;;
71164;SDS011;58859;55.132;-1.586;2023-10-19T13:03:06;17.60;;;3.13;;
71164;SDS011;58859;55.132;-1.586;2023-10-19T13:05:33;12.15;;;2.63;;
71164;SDS011;58859;55.132;-1.586;2023-10-19T13:08:02;17.55;;;2.97;;
71164;SDS011;58859;55.132;-1.586;2023-10-19T13:10:30;22.50;;;3.88;;
71164;SDS011;58859;55.132;-1.586;2023-10-19T13:13:02;17.85;;;3.42;;
71164;SDS011;58859;55.132;-1.586;2023-10-19T13:15:32;19.10;;;3.67;;
71164;SDS011;58859;55.132;-1.586;2023-10-19T13:18:03;16.60;;;3.20;;
71164;SDS011;58859;55.132;-1.586;2023-10-19T13:20:31;14.65;;;3.65;;
71164;SDS011;58859;55.132;-1.586;2023-10-19T13:23:01;14.85;;;3.22;;
71164;SDS011;58859;55.132;-1.586;2023-10-19T13:25:36;13.90;;;3.60;;
71164;SDS011;58859;55.132;-1.586;2023-10-19T13:28:27;12.50;;;2.80;;
71164;SDS011;58859;55.132;-1.586;2023-10-19T13:30:53;19.40;;;3.47;;
71164;SDS011;58859;55.132;-1.586;2023-10-19T13:33:19;12.50;;;3.63;;
71164;SDS011;58859;55.132;-1.586;2023-10-19T13:35:54;17.67;;;3.65;;
71164;SDS011;58859;55.132;-1.586;2023-10-19T13:38:19;17.23;;;4.20;;
71164;SDS011;58859;55.132;-1.586;2023-10-19T13:40:45;19.33;;;3.87;;
71164;SDS011;58859;55.132;-1.586;2023-10-19T13:43:11;18.10;;;4.68;;
71164;SDS011;58859;55.132;-1.586;2023-10-19T13:45:41;17.20;;;4.03;;
71164;SDS011;58859;55.132;-1.586;2023-10-19T13:48:10;16.17;;;4.53;;
71164;SDS011;58859;55.132;-1.586;2023-10-19T13:50:40;24.23;;;4.55;;
71164;SDS011;58859;55.132;-1.586;2023-10-19T13:53:11;28.30;;;4.78;;
71164;SDS011;58859;55.132;-1.586;2023-10-19T13:55:37;17.10;;;4.10;;
71164;SDS011;58859;55.132;-1.586;2023-10-19T13:58:02;20.47;;;4.40;;
71164;SDS011;58859;55.132;-1.586;2023-10-19T14:00:28;18.23;;;4.72;;
71164;SDS011;58859;55.132;-1.586;2023-10-19T14:03:05;20.83;;;4.45;;
71164;SDS011;58859;55.132;-1.586;2023-10-19T14:05:44;20.03;;;3.77;;
71164;SDS011;58859;55.132;-1.586;2023-10-19T14:08:13;24.45;;;5.22;;
71164;SDS011;58859;55.132;-1.586;2023-10-19T14:10:39;19.67;;;4.80;;
71164;SDS011;58859;55.132;-1.586;2023-10-19T14:13:08;22.23;;;4.82;;
71164;SDS011;58859;55.132;-1.586;2023-10-19T14:15:36;27.58;;;5.20;;
71164;SDS011;58859;55.132;-1.586;2023-10-19T14:18:02;32.77;;;4.80;;
71164;SDS011;58859;55.132;-1.586;2023-10-19T14:20:29;30.77;;;5.43;;
71164;SDS011;58859;55.132;-1.586;2023-10-19T14:22:59;22.10;;;5.68;;
71164;SDS011;58859;55.132;-1.586;2023-10-19T14:25:25;32.40;;;5.93;;
71164;SDS011;58859;55.132;-1.586;2023-10-19T14:27:52;33.53;;;6.00;;
71164;SDS011;58859;55.132;-1.586;2023-10-19T14:30:23;37.47;;;6.05;;
71164;SDS011;58859;55.132;-1.586;2023-10-19T14:32:49;24.65;;;5.38;;
71164;SDS011;58859;55.132;-1.586;2023-10-19T14:35:17;29.27;;;5.63;;
71164;SDS011;58859;55.132;-1.586;2023-10-19T14:37:47;23.70;;;6.35;;
71164;SDS011;58859;55.132;-1.586;2023-10-19T14:40:26;25.77;;;4.75;;
71164;SDS011;58859;55.132;-1.586;2023-10-19T14:42:53;24.20;;;5.47;;
71164;SDS011;58859;55.132;-1.586;2023-10-19T14:45:20;35.67;;;8.52;;
71164;SDS011;58859;55.132;-1.586;2023-10-19T14:47:51;30.35;;;5.75;;
71164;SDS011;58859;55.132;-1.586;2023-10-19T14:50:17;26.58;;;5.47;;
71164;SDS011;58859;55.132;-1.586;2023-10-19T14:52:47;25.48;;;5.70;;
71164;SDS011;58859;55.132;-1.586;2023-10-19T14:55:14;26.58;;;5.95;;
71164;SDS011;58859;55.132;-1.586;2023-10-19T14:57:41;25.58;;;6.57;;
71164;SDS011;58859;55.132;-1.586;2023-10-19T15:00:08;35.17;;;6.80;;
71164;SDS011;58859;55.132;-1.586;2023-10-19T15:02:46;28.70;;;5.78;;
71164;SDS011;58859;55.132;-1.586;2023-10-19T15:05:14;34.95;;;6.45;;